Atwood, Kentucky
Current Conditions -  °F | °C
As of 5:52 PM on Tuesday 27 Jan 2015 (Local Time) from KCVG Reporting Station
Clear Clear  
Wind Chill: 18°   Ceiling: Unl
Heat Index: 26°   Visibility: 10mi
Dew Point: 13°   Wind: 8mph
Humidity: 58%   Direction: 350°N
Pressure: 30.15"   Gusts: NA
Location:  38.8354°N, 84.5143°W
Report Text: KCVG 272252Z 35007KT 10SM CLR M03/M11 A3015 RMK AO2 SLP218 T10331106
Loading
Personal Weather Stations






























Interactive Weather Map New forecast layout! Learn more

10-Day Weather Forecast

Advertisements
Track Severe Weather on mobile